Time;durP1;ratioP1;P1;durP2;ratioP2;P2;SDS_P1;SDS_P2;PMS_P1;PMS_P2;Temp;Humidity;BMP_temperature;BMP_pressure;BME280_temperature;BME280_humidity;BME280_pressure;Samples;Min_cycle;Max_cycle;Signal;HPM_P1;HPM_P2
2024/03/27 00:00:58;;;;;;;33.13;23.27;;;;;22.00;97582.00;;;;2058418;28;20519;-67
2024/03/27 00:01:59;;;;;;;35.03;23.50;;;;;22.00;97576.00;;;;2067344;28;20214;-67
2024/03/27 00:02:59;;;;;;;37.57;24.27;;;;;22.00;97574.00;;;;2065713;28;20222;-67
2024/03/27 00:04:00;;;;;;;32.30;22.40;;;;;22.00;97573.00;;;;2062994;28;20206;-67
2024/03/27 00:05:00;;;;;;;29.43;21.03;;;;;22.00;97569.00;;;;2054726;28;20219;-67
2024/03/27 00:06:00;;;;;;;34.03;22.63;;;;;22.00;97578.00;;;;2068793;28;20209;-67
2024/03/27 00:07:01;;;;;;;35.03;22.27;;;;;22.00;97575.00;;;;2064635;28;20211;-67
2024/03/27 00:08:01;;;;;;;34.10;22.63;;;;;21.70;97568.00;;;;2063058;28;20222;-67
2024/03/27 00:09:02;;;;;;;32.90;21.63;;;;;22.00;97568.00;;;;2061426;28;20269;-67
2024/03/27 00:10:02;;;;;;;34.07;22.60;;;;;22.00;97535.00;;;;2036901;28;20696;-67
2024/03/27 00:11:03;;;;;;;31.60;21.93;;;;;22.00;97566.00;;;;2054422;28;20761;-67
2024/03/27 00:12:03;;;;;;;32.00;21.73;;;;;21.90;97557.00;;;;2068060;28;20317;-67
2024/03/27 00:13:03;;;;;;;34.97;24.63;;;;;21.90;97566.00;;;;2064554;28;20297;-67
2024/03/27 00:14:04;;;;;;;28.67;20.50;;;;;22.00;97564.00;;;;2063793;28;20198;-67
2024/03/27 00:15:05;;;;;;;30.70;21.37;;;;;22.00;97559.00;;;;2053441;28;20292;-67
2024/03/27 00:16:05;;;;;;;30.33;21.33;;;;;21.90;97562.00;;;;2062842;28;20740;-67
2024/03/27 00:17:05;;;;;;;31.90;21.57;;;;;21.90;97567.00;;;;2068764;28;20214;-67
2024/03/27 00:18:06;;;;;;;28.77;18.17;;;;;21.60;97567.00;;;;2064247;28;20211;-67
2024/03/27 00:19:06;;;;;;;29.77;20.23;;;;;21.90;97576.00;;;;2066914;28;20241;-67
2024/03/27 00:20:08;;;;;;;31.83;20.30;;;;;21.90;97567.00;;;;2061415;28;20222;-67
2024/03/27 00:21:08;;;;;;;32.95;21.13;;;;;21.90;97568.00;;;;2064515;28;20215;-67
2024/03/27 00:22:09;;;;;;;25.87;19.53;;;;;21.90;97571.00;;;;2071013;28;20214;-67
2024/03/27 00:23:09;;;;;;;27.50;19.23;;;;;21.90;97571.00;;;;2064898;28;20215;-67
2024/03/27 00:24:10;;;;;;;25.37;17.43;;;;;21.90;97483.00;;;;2055591;28;20546;-67
2024/03/27 00:25:10;;;;;;;31.53;20.73;;;;;21.80;97567.00;;;;2061141;28;20222;-67
2024/03/27 00:26:11;;;;;;;30.93;20.10;;;;;21.90;97569.00;;;;2070361;28;20309;-67
2024/03/27 00:27:11;;;;;;;26.50;17.80;;;;;21.90;97566.00;;;;2073013;28;20253;-67
2024/03/27 00:28:11;;;;;;;28.47;18.97;;;;;21.90;97571.00;;;;2064793;28;20282;-66
2024/03/27 00:29:12;;;;;;;26.10;17.60;;;;;21.90;97565.00;;;;2067053;28;20222;-67
2024/03/27 00:30:12;;;;;;;29.50;19.87;;;;;21.90;97567.00;;;;2059442;28;20248;-67
2024/03/27 00:31:13;;;;;;;31.00;19.67;;;;;21.90;97562.00;;;;2063998;28;20464;-67
2024/03/27 00:32:13;;;;;;;24.60;17.23;;;;;21.90;97564.00;;;;2070474;28;20246;-67
2024/03/27 00:33:14;;;;;;;21.87;16.23;;;;;21.90;97566.00;;;;2062140;28;20217;-67
2024/03/27 00:34:15;;;;;;;26.63;17.47;;;;;21.90;97561.00;;;;2063179;28;20726;-67
2024/03/27 00:35:16;;;;;;;23.25;17.05;;;;;21.90;97577.00;;;;2044083;28;20269;-67
2024/03/27 00:36:16;;;;;;;25.67;17.27;;;;;21.90;97554.00;;;;2069237;28;20698;-68
2024/03/27 00:37:17;;;;;;;27.53;17.27;;;;;21.90;97564.00;;;;2064079;28;20678;-68
2024/03/27 00:38:17;;;;;;;25.00;16.10;;;;;21.90;97574.00;;;;2067077;28;20766;-68
2024/03/27 00:39:17;;;;;;;25.10;15.80;;;;;21.80;97572.00;;;;2064062;28;20701;-68
2024/03/27 00:40:18;;;;;;;23.30;16.17;;;;;21.80;97565.00;;;;2052824;28;20247;-68
2024/03/27 00:41:19;;;;;;;26.40;16.02;;;;;21.80;97567.00;;;;2063413;28;20574;-68
2024/03/27 00:42:19;;;;;;;29.23;19.13;;;;;21.80;97488.00;;;;2063550;28;20219;-68
2024/03/27 00:43:19;;;;;;;23.67;15.83;;;;;21.80;97572.00;;;;2069317;28;20342;-68
2024/03/27 00:44:20;;;;;;;26.37;17.97;;;;;21.80;97570.00;;;;2063060;28;20219;-68
2024/03/27 00:45:20;;;;;;;26.10;17.13;;;;;21.80;97571.00;;;;2051860;28;22218;-68
2024/03/27 00:46:20;;;;;;;24.77;16.60;;;;;21.80;97560.00;;;;2070721;28;20237;-68
2024/03/27 00:47:21;;;;;;;26.23;16.77;;;;;21.80;97558.00;;;;2066817;28;20579;-68
2024/03/27 00:48:22;;;;;;;24.27;16.10;;;;;21.80;97558.00;;;;2063108;28;20566;-68
2024/03/27 00:49:22;;;;;;;23.47;15.73;;;;;21.80;97565.00;;;;2062540;28;20230;-68
2024/03/27 00:50:22;;;;;;;22.80;15.50;;;;;21.80;97558.00;;;;2049572;28;20818;-69
2024/03/27 00:51:23;;;;;;;24.37;16.90;;;;;21.80;97571.00;;;;2069307;28;20240;-68
2024/03/27 00:52:23;;;;;;;23.57;15.80;;;;;21.80;97573.00;;;;2064754;28;20238;-69
2024/03/27 00:53:24;;;;;;;22.57;14.80;;;;;21.80;97568.00;;;;2063281;28;20599;-68
2024/03/27 00:54:24;;;;;;;18.50;12.83;;;;;21.80;97569.00;;;;2062028;28;20567;-68
2024/03/27 00:55:25;;;;;;;24.40;16.47;;;;;21.80;97565.00;;;;2053431;28;20235;-68
2024/03/27 00:56:27;;;;;;;20.97;14.93;;;;;21.80;97575.00;;;;2063451;28;20223;-68
2024/03/27 00:57:27;;;;;;;21.00;14.55;;;;;21.80;97560.00;;;;2066815;28;20218;-68
2024/03/27 00:58:28;;;;;;;21.33;14.83;;;;;21.80;97570.00;;;;2069174;28;20226;-68
2024/03/27 00:59:32;;;;;;;22.53;14.93;;;;;21.80;97560.00;;;;2069011;28;20230;-68
2024/03/27 01:00:32;;;;;;;18.73;13.45;;;;;21.80;97568.00;;;;2064021;28;20269;-68
2024/03/27 01:01:32;;;;;;;19.80;13.60;;;;;21.80;97565.00;;;;2070472;28;21119;-68
2024/03/27 01:02:33;;;;;;;21.57;13.60;;;;;21.80;97564.00;;;;2065079;28;20234;-68
2024/03/27 01:03:33;;;;;;;20.97;13.80;;;;;21.80;97565.00;;;;2066149;28;20215;-68
2024/03/27 01:04:34;;;;;;;20.80;14.87;;;;;21.80;97560.00;;;;2061010;28;20821;-68
2024/03/27 01:05:39;;;;;;;20.80;14.00;;;;;21.80;97564.00;;;;2066261;28;20678;-68
2024/03/27 01:06:39;;;;;;;21.27;13.73;;;;;21.80;97558.00;;;;2068631;28;20488;-68
2024/03/27 01:07:39;;;;;;;21.07;13.93;;;;;21.80;97563.00;;;;2071058;28;20722;-68
2024/03/27 01:08:41;;;;;;;17.80;12.93;;;;;21.80;97564.00;;;;2066831;28;20713;-68
2024/03/27 01:09:41;;;;;;;17.90;12.52;;;;;21.70;97558.00;;;;2056591;28;20229;-68
2024/03/27 01:10:42;;;;;;;19.13;12.93;;;;;21.80;97559.00;;;;2070654;28;20617;-68
2024/03/27 01:11:42;;;;;;;20.30;13.90;;;;;21.80;97557.00;;;;2067470;28;20218;-68
2024/03/27 01:12:42;;;;;;;17.97;12.33;;;;;21.80;97560.00;;;;2069930;28;20295;-68
2024/03/27 01:13:43;;;;;;;19.77;13.30;;;;;21.80;97558.00;;;;2065413;28;20243;-68
2024/03/27 01:14:43;;;;;;;17.83;13.07;;;;;21.70;97551.00;;;;2061292;28;20222;-68
2024/03/27 01:15:50;;;;;;;18.97;13.20;;;;;21.80;97555.00;;;;2071393;28;20213;-68
2024/03/27 01:16:50;;;;;;;16.55;11.55;;;;;21.80;97479.00;;;;2071870;28;20300;-68
2024/03/27 01:17:51;;;;;;;20.23;12.97;;;;;21.70;97545.00;;;;2060774;28;20302;-68
2024/03/27 01:18:51;;;;;;;18.00;12.30;;;;;21.80;97549.00;;;;2060137;28;20690;-68
2024/03/27 01:19:51;;;;;;;18.03;12.47;;;;;21.80;97557.00;;;;2056237;28;21078;-68
2024/03/27 01:20:52;;;;;;;19.30;12.70;;;;;21.80;97551.00;;;;2066116;28;20297;-68
2024/03/27 01:21:52;;;;;;;18.90;12.53;;;;;21.80;97545.00;;;;2068574;28;20210;-68
2024/03/27 01:22:52;;;;;;;16.67;11.90;;;;;21.70;97539.00;;;;2068176;28;20305;-68
2024/03/27 01:23:53;;;;;;;15.40;11.10;;;;;21.70;97545.00;;;;2066150;28;20219;-68
2024/03/27 01:24:53;;;;;;;18.30;12.47;;;;;21.70;97534.00;;;;2055064;28;20281;-68
2024/03/27 01:25:53;;;;;;;21.87;12.60;;;;;21.70;97531.00;;;;2064342;28;20247;-68
2024/03/27 01:26:54;;;;;;;16.17;11.37;;;;;21.70;97536.00;;;;2067766;28;21562;-74
2024/03/27 01:27:54;;;;;;;17.67;12.10;;;;;21.70;97534.00;;;;2067660;28;20203;-74
2024/03/27 01:28:54;;;;;;;18.83;11.60;;;;;21.70;97533.00;;;;2064720;28;20203;-69
2024/03/27 01:29:55;;;;;;;17.13;10.40;;;;;21.70;97531.00;;;;2054915;28;20231;-69
2024/03/27 01:30:55;;;;;;;14.80;10.37;;;;;21.70;97531.00;;;;2064305;28;20211;-69
2024/03/27 01:31:55;;;;;;;16.80;10.90;;;;;21.70;97527.00;;;;2064009;28;20228;-68
2024/03/27 01:32:56;;;;;;;13.90;10.30;;;;;21.70;97528.00;;;;2065992;28;20218;-68
2024/03/27 01:33:57;;;;;;;15.13;11.07;;;;;21.70;97527.00;;;;2068602;28;20203;-68
2024/03/27 01:34:57;;;;;;;17.10;12.43;;;;;21.70;97531.00;;;;2055087;28;20563;-68
2024/03/27 01:35:57;;;;;;;15.40;10.43;;;;;21.70;97526.00;;;;2064650;28;20597;-68
2024/03/27 01:36:58;;;;;;;15.40;10.20;;;;;21.70;97523.00;;;;2068303;28;20567;-68
2024/03/27 01:37:58;;;;;;;15.13;10.73;;;;;21.70;97518.00;;;;2056573;28;20267;-68
2024/03/27 01:38:58;;;;;;;15.33;10.60;;;;;21.70;97514.00;;;;2056208;28;20207;-68
2024/03/27 01:39:58;;;;;;;13.67;10.50;;;;;21.70;97523.00;;;;2051141;28;20321;-68
2024/03/27 01:40:59;;;;;;;16.60;11.00;;;;;21.70;97498.00;;;;2064545;28;20211;-68
2024/03/27 01:41:59;;;;;;;14.20;10.50;;;;;21.70;97523.00;;;;2066903;28;20210;-68
2024/03/27 01:42:59;;;;;;;13.70;9.63;;;;;21.70;97524.00;;;;2066154;28;20237;-68
2024/03/27 01:44:00;;;;;;;16.20;10.30;;;;;21.70;97527.00;;;;2069103;28;20206;-68
2024/03/27 01:45:00;;;;;;;13.20;9.40;;;;;21.70;97524.00;;;;2057087;28;20230;-68
2024/03/27 01:46:01;;;;;;;14.93;10.47;;;;;21.70;97527.00;;;;2064629;28;20295;-68
2024/03/27 01:47:01;;;;;;;15.90;10.20;;;;;21.70;97531.00;;;;2064751;28;20237;-68
2024/03/27 01:48:02;;;;;;;13.73;10.27;;;;;21.70;97512.00;;;;2063918;28;20873;-68
2024/03/27 01:49:02;;;;;;;13.33;9.33;;;;;21.70;97529.00;;;;2052257;28;20673;-68
2024/03/27 01:50:04;;;;;;;15.00;9.90;;;;;21.70;97515.00;;;;2049105;28;20234;-68
2024/03/27 01:51:04;;;;;;;14.55;10.13;;;;;21.70;97527.00;;;;2064606;28;20214;-68
2024/03/27 01:52:05;;;;;;;14.00;9.70;;;;;21.70;97511.00;;;;2067411;28;20390;-68
2024/03/27 01:53:05;;;;;;;13.93;9.00;;;;;21.70;97521.00;;;;2063680;28;20602;-68
2024/03/27 01:54:06;;;;;;;14.90;9.60;;;;;21.70;97509.00;;;;2059148;28;20213;-68
2024/03/27 01:55:07;;;;;;;13.53;9.30;;;;;21.70;97420.00;;;;2052659;28;20207;-68
2024/03/27 01:56:07;;;;;;;15.35;10.30;;;;;21.70;97505.00;;;;2055584;28;20212;-68
2024/03/27 01:57:07;;;;;;;14.07;9.33;;;;;21.60;97511.00;;;;2060438;28;20218;-68
2024/03/27 01:58:08;;;;;;;12.10;8.77;;;;;21.60;97516.00;;;;2062058;28;20203;-68
2024/03/27 01:59:08;;;;;;;11.53;8.27;;;;;21.60;97504.00;;;;2063679;28;20213;-68
2024/03/27 02:00:09;;;;;;;14.80;9.77;;;;;21.60;97513.00;;;;2057485;28;20219;-68
2024/03/27 02:01:09;;;;;;;11.10;8.73;;;;;21.60;97514.00;;;;2061440;28;20298;-68
2024/03/27 02:02:10;;;;;;;12.30;8.70;;;;;21.60;97497.00;;;;2060440;28;20237;-68
2024/03/27 02:03:10;;;;;;;12.00;8.20;;;;;21.60;97511.00;;;;2058138;28;20199;-68
2024/03/27 02:04:10;;;;;;;12.00;8.13;;;;;21.60;97435.00;;;;2047600;28;20286;-68
2024/03/27 02:05:11;;;;;;;13.93;8.87;;;;;21.60;97487.00;;;;2052253;28;20230;-68
2024/03/27 02:06:11;;;;;;;10.87;7.60;;;;;21.70;97510.00;;;;2054321;28;20215;-68
2024/03/27 02:07:11;;;;;;;12.57;8.10;;;;;21.60;97505.00;;;;2066739;28;20234;-68
2024/03/27 02:08:12;;;;;;;12.00;8.40;;;;;21.60;97510.00;;;;2071743;28;20206;-68
2024/03/27 02:09:12;;;;;;;11.23;8.43;;;;;21.60;97505.00;;;;2064457;28;20277;-68
2024/03/27 02:10:12;;;;;;;10.93;7.97;;;;;21.60;97504.00;;;;2049537;28;20256;-68
2024/03/27 02:11:13;;;;;;;13.63;8.50;;;;;21.60;97513.00;;;;2053093;28;20284;-68
2024/03/27 02:12:14;;;;;;;11.77;8.25;;;;;21.60;97497.00;;;;2063424;28;20730;-68
2024/03/27 02:13:14;;;;;;;11.97;8.03;;;;;21.60;97497.00;;;;2070360;28;20237;-68
2024/03/27 02:14:15;;;;;;;13.10;8.57;;;;;21.60;97492.00;;;;2064274;28;20346;-68
2024/03/27 02:15:15;;;;;;;11.67;8.17;;;;;21.60;97493.00;;;;2054260;28;20210;-68
2024/03/27 02:16:15;;;;;;;10.20;6.80;;;;;21.60;97495.00;;;;2065989;28;20578;-68
2024/03/27 02:17:16;;;;;;;11.17;7.63;;;;;21.60;97493.00;;;;2068320;28;21049;-68
2024/03/27 02:18:16;;;;;;;12.03;8.00;;;;;21.60;97487.00;;;;2070471;28;20689;-68
2024/03/27 02:19:16;;;;;;;11.03;7.07;;;;;21.60;97493.00;;;;2070273;28;20706;-68
2024/03/27 02:20:16;;;;;;;13.03;8.07;;;;;21.60;97490.00;;;;2054306;28;20231;-68
2024/03/27 02:21:17;;;;;;;9.20;6.73;;;;;21.60;97495.00;;;;2064333;28;20281;-68
2024/03/27 02:22:17;;;;;;;10.03;7.23;;;;;21.60;97488.00;;;;2068467;28;20226;-68
2024/03/27 02:23:19;;;;;;;9.80;6.57;;;;;21.60;97491.00;;;;2063570;28;20223;-68
2024/03/27 02:24:31;;;;;;;9.95;7.43;;;;;21.60;97499.00;;;;2067377;28;20223;-68
2024/03/27 02:26:24;;;;;;;12.88;7.93;;;;;21.60;97488.00;;;;2063593;28;20234;-68
2024/03/27 02:27:24;;;;;;;10.50;7.50;;;;;21.60;97491.00;;;;2066067;28;20225;-68
2024/03/27 02:28:25;;;;;;;11.43;6.87;;;;;21.60;97495.00;;;;2063587;28;20300;-68
2024/03/27 02:29:25;;;;;;;9.53;7.30;;;;;21.60;97493.00;;;;2065327;28;20510;-72
2024/03/27 02:30:25;;;;;;;12.90;7.60;;;;;21.60;97495.00;;;;2055041;28;20354;-69
2024/03/27 02:31:26;;;;;;;10.37;6.70;;;;;21.60;97492.00;;;;2069353;28;20288;-69
2024/03/27 02:32:26;;;;;;;10.00;6.57;;;;;21.60;97486.00;;;;2068761;28;20227;-69
2024/03/27 02:33:26;;;;;;;10.50;6.90;;;;;21.60;97490.00;;;;2061990;28;20270;-68
2024/03/27 02:34:27;;;;;;;12.57;7.40;;;;;21.60;97490.00;;;;2069064;28;20224;-69
2024/03/27 02:35:28;;;;;;;10.68;6.82;;;;;21.60;97487.00;;;;2053109;28;20269;-68
2024/03/27 02:36:28;;;;;;;8.90;6.10;;;;;21.60;97492.00;;;;2070489;28;20284;-68
2024/03/27 02:37:28;;;;;;;9.00;6.07;;;;;21.60;97492.00;;;;2067097;28;20222;-68
2024/03/27 02:38:29;;;;;;;9.50;6.00;;;;;21.60;97500.00;;;;2064092;28;20301;-68
2024/03/27 02:39:29;;;;;;;9.73;6.70;;;;;21.60;97495.00;;;;2058194;28;20679;-69
2024/03/27 02:40:30;;;;;;;9.67;6.50;;;;;21.60;97503.00;;;;2059765;28;21008;-68
2024/03/27 02:41:30;;;;;;;9.43;6.20;;;;;21.60;97496.00;;;;2065096;28;20222;-68
2024/03/27 02:42:30;;;;;;;10.20;6.70;;;;;21.60;97496.00;;;;2065383;28;20222;-68
2024/03/27 02:43:31;;;;;;;10.60;6.87;;;;;21.60;97405.00;;;;2064246;28;20223;-68
2024/03/27 02:44:31;;;;;;;9.10;6.40;;;;;21.60;97493.00;;;;2045451;28;20298;-68
2024/03/27 02:45:31;;;;;;;9.67;6.27;;;;;21.50;97488.00;;;;2063300;28;20298;-68
2024/03/27 02:46:32;;;;;;;8.10;5.53;;;;;21.50;97487.00;;;;2064604;28;20207;-68
2024/03/27 02:47:32;;;;;;;10.50;5.80;;;;;21.50;97483.00;;;;2065248;28;20327;-68
2024/03/27 02:48:32;;;;;;;8.90;6.23;;;;;21.50;97490.00;;;;2065154;28;20211;-68
2024/03/27 02:49:33;;;;;;;8.00;5.50;;;;;21.50;97491.00;;;;2054037;28;20289;-68
2024/03/27 02:50:33;;;;;;;9.77;6.00;;;;;21.60;97496.00;;;;2065034;28;20302;-68
2024/03/27 02:51:33;;;;;;;9.10;5.90;;;;;21.60;97493.00;;;;2070597;28;20218;-68
2024/03/27 02:52:34;;;;;;;8.83;6.20;;;;;21.60;97491.00;;;;2072185;28;20249;-68
2024/03/27 02:53:34;;;;;;;10.70;6.27;;;;;21.60;97498.00;;;;2067093;28;20215;-68
2024/03/27 02:54:34;;;;;;;9.17;6.20;;;;;21.50;97498.00;;;;2055352;28;20215;-68
2024/03/27 02:55:34;;;;;;;9.43;6.50;;;;;21.60;97494.00;;;;2064577;28;21601;-68
2024/03/27 02:56:35;;;;;;;9.47;6.03;;;;;21.60;97488.00;;;;2063661;28;20207;-68
2024/03/27 02:57:35;;;;;;;7.90;5.53;;;;;21.50;97495.00;;;;2072041;28;20340;-68
2024/03/27 02:58:35;;;;;;;9.23;6.00;;;;;21.50;97485.00;;;;2069129;28;20222;-68
2024/03/27 02:59:36;;;;;;;7.30;5.53;;;;;21.60;97498.00;;;;2058268;28;20229;-68
2024/03/27 03:00:36;;;;;;;7.93;5.40;;;;;21.50;97494.00;;;;2065027;28;20211;-68
2024/03/27 03:01:36;;;;;;;7.60;5.20;;;;;21.50;97489.00;;;;2069354;28;20214;-68
2024/03/27 03:02:37;;;;;;;8.20;6.00;;;;;21.50;97490.00;;;;2071867;28;20245;-68
2024/03/27 03:03:37;;;;;;;10.00;6.40;;;;;21.50;97484.00;;;;2064029;28;20215;-68
2024/03/27 03:04:37;;;;;;;8.00;5.53;;;;;21.50;97489.00;;;;2054736;28;20238;-68
2024/03/27 03:05:38;;;;;;;6.97;4.67;;;;;21.50;97486.00;;;;2068246;28;20574;-68
2024/03/27 03:06:39;;;;;;;7.23;5.13;;;;;21.50;97485.00;;;;2064724;28;20568;-68
2024/03/27 03:07:39;;;;;;;7.80;5.70;;;;;21.50;97479.00;;;;2070250;28;21026;-68
2024/03/27 03:08:40;;;;;;;6.93;4.60;;;;;21.50;97477.00;;;;2064416;28;20225;-68
2024/03/27 03:09:40;;;;;;;8.50;4.60;;;;;21.50;97481.00;;;;2054211;28;20720;-68
2024/03/27 03:10:40;;;;;;;8.60;4.97;;;;;21.50;97475.00;;;;2065252;28;20632;-68
2024/03/27 03:11:41;;;;;;;8.53;5.50;;;;;21.50;97471.00;;;;2065675;28;20614;-68
2024/03/27 03:12:41;;;;;;;8.60;5.47;;;;;21.50;97466.00;;;;2067138;28;20705;-68
2024/03/27 03:13:41;;;;;;;6.90;4.90;;;;;21.50;97470.00;;;;2071579;28;20676;-68
2024/03/27 03:14:41;;;;;;;8.03;5.27;;;;;21.50;97468.00;;;;2054049;28;20680;-68
2024/03/27 03:15:42;;;;;;;7.10;5.30;;;;;21.50;97468.00;;;;2071399;28;20771;-68
2024/03/27 03:16:42;;;;;;;7.93;5.00;;;;;21.50;97412.00;;;;2065071;28;20720;-68
2024/03/27 03:17:43;;;;;;;8.10;5.50;;;;;21.50;97465.00;;;;2068192;28;20960;-68
2024/03/27 03:18:46;;;;;;;8.75;5.32;;;;;21.50;97472.00;;;;2064104;28;20221;-68
2024/03/27 03:19:47;;;;;;;8.18;5.05;;;;;21.40;97464.00;;;;2054326;28;20225;-68
2024/03/27 03:20:47;;;;;;;7.87;5.20;;;;;21.50;97471.00;;;;2070125;28;20224;-68
2024/03/27 03:21:47;;;;;;;7.80;5.27;;;;;21.50;97458.00;;;;2069778;28;20218;-68
2024/03/27 03:22:49;;;;;;;6.60;4.27;;;;;21.50;97450.00;;;;2063519;28;20229;-68
2024/03/27 03:23:49;;;;;;;7.47;5.00;;;;;21.40;97451.00;;;;2063934;28;20647;-68
2024/03/27 03:24:50;;;;;;;8.07;5.20;;;;;21.50;97436.00;;;;2053655;28;20226;-68
2024/03/27 03:25:50;;;;;;;8.07;4.90;;;;;21.50;97439.00;;;;2065613;28;20245;-68
2024/03/27 03:26:50;;;;;;;8.03;5.17;;;;;21.40;97437.00;;;;2068495;28;20215;-68
2024/03/27 03:27:51;;;;;;;6.40;4.93;;;;;21.40;97417.00;;;;2065869;28;20222;-68
2024/03/27 03:28:51;;;;;;;6.70;4.27;;;;;21.50;97437.00;;;;2069434;28;20217;-68
2024/03/27 03:29:51;;;;;;;8.20;4.53;;;;;21.50;97460.00;;;;2052981;28;20255;-68
2024/03/27 03:30:52;;;;;;;8.53;5.30;;;;;21.50;97466.00;;;;2069597;28;20251;-68
2024/03/27 03:31:52;;;;;;;8.37;5.20;;;;;21.50;97392.00;;;;2067170;28;20238;-68
2024/03/27 03:32:52;;;;;;;6.47;4.43;;;;;21.50;97427.00;;;;2064360;28;20223;-68
2024/03/27 03:33:53;;;;;;;7.87;5.20;;;;;21.50;97457.00;;;;2051547;28;20249;-68
2024/03/27 03:34:54;;;;;;;6.17;4.20;;;;;21.50;97466.00;;;;2053576;28;20739;-68
2024/03/27 03:35:54;;;;;;;6.22;4.60;;;;;21.50;97460.00;;;;2066014;28;20265;-68
2024/03/27 03:36:55;;;;;;;7.07;4.60;;;;;21.50;97459.00;;;;2070550;28;20226;-68
2024/03/27 03:37:55;;;;;;;7.57;5.07;;;;;21.50;97459.00;;;;2063957;28;20215;-68
2024/03/27 03:38:56;;;;;;;6.53;4.80;;;;;21.50;97464.00;;;;2064093;28;20217;-68
2024/03/27 03:39:56;;;;;;;6.50;4.23;;;;;21.50;97462.00;;;;2056269;28;20227;-68
2024/03/27 03:41:00;;;;;;;6.43;4.10;;;;;21.50;97339.00;;;;2066143;28;20234;-68
2024/03/27 03:42:00;;;;;;;8.88;4.75;;;;;21.50;97456.00;;;;2060110;28;20215;-68
2024/03/27 03:43:01;;;;;;;8.43;4.90;;;;;21.50;97448.00;;;;2050155;28;20208;-68
2024/03/27 03:44:01;;;;;;;7.63;5.00;;;;;21.50;97461.00;;;;2057691;28;20196;-68
2024/03/27 03:45:02;;;;;;;6.90;4.70;;;;;21.50;97448.00;;;;2045446;28;20207;-68
2024/03/27 03:46:02;;;;;;;8.10;4.50;;;;;21.50;97444.00;;;;2063903;28;20221;-68
2024/03/27 03:47:03;;;;;;;7.00;4.77;;;;;21.50;97462.00;;;;2067209;28;20732;-68
2024/03/27 03:48:04;;;;;;;6.33;4.20;;;;;21.50;97429.00;;;;2069188;28;20756;-68
2024/03/27 03:49:04;;;;;;;6.28;4.28;;;;;21.40;97452.00;;;;2064870;28;20226;-68
2024/03/27 03:50:05;;;;;;;6.43;4.03;;;;;21.40;97450.00;;;;2055153;28;20241;-68
2024/03/27 03:51:05;;;;;;;5.70;3.80;;;;;21.40;97434.00;;;;2069000;28;20253;-68
2024/03/27 03:52:05;;;;;;;7.07;4.40;;;;;21.40;97449.00;;;;2067442;28;20297;-68
2024/03/27 03:53:05;;;;;;;6.23;4.53;;;;;21.40;97456.00;;;;2066298;28;20251;-68
2024/03/27 03:54:07;;;;;;;6.10;3.70;;;;;21.50;97449.00;;;;2064210;28;20207;-68
2024/03/27 03:55:08;;;;;;;6.43;4.18;;;;;21.50;97436.00;;;;2054745;28;20700;-68
2024/03/27 03:56:08;;;;;;;7.87;4.10;;;;;21.20;97442.00;;;;2067092;28;20215;-68
2024/03/27 03:57:08;;;;;;;5.60;3.80;;;;;21.50;97447.00;;;;2069615;28;20454;-68
2024/03/27 03:58:11;;;;;;;6.97;3.57;;;;;21.40;97452.00;;;;2069325;28;20210;-68
2024/03/27 03:59:11;;;;;;;7.85;4.00;;;;;21.50;97457.00;;;;2064693;28;20206;-68
2024/03/27 04:00:20;;;;;;;7.37;4.47;;;;;21.50;97448.00;;;;2056198;28;20313;-68
2024/03/27 04:01:20;;;;;;;5.70;3.80;;;;;21.40;97450.00;;;;2063964;28;20215;-68
2024/03/27 04:02:20;;;;;;;6.60;4.00;;;;;21.40;97450.00;;;;2068168;28;20258;-68
2024/03/27 04:03:21;;;;;;;7.60;4.00;;;;;21.40;97450.00;;;;2063256;28;20657;-68
2024/03/27 04:04:21;;;;;;;5.57;3.60;;;;;21.40;97438.00;;;;2063773;28;20621;-68
2024/03/27 04:05:21;;;;;;;9.77;4.77;;;;;21.40;97346.00;;;;2058597;28;20218;-68
2024/03/27 04:06:21;;;;;;;5.83;4.00;;;;;21.40;97436.00;;;;2065836;28;20218;-68
2024/03/27 04:07:22;;;;;;;6.90;4.37;;;;;21.40;97433.00;;;;2058663;28;20218;-68
2024/03/27 04:08:22;;;;;;;7.23;4.33;;;;;21.40;97435.00;;;;2062943;28;20266;-68
2024/03/27 04:09:22;;;;;;;5.60;3.70;;;;;21.40;97435.00;;;;2063739;28;20237;-68
2024/03/27 04:10:23;;;;;;;6.47;4.43;;;;;21.40;97442.00;;;;2054473;28;20239;-68
2024/03/27 04:11:23;;;;;;;5.17;3.67;;;;;21.40;97443.00;;;;2065948;28;20229;-68
2024/03/27 04:12:23;;;;;;;6.13;4.20;;;;;21.40;97445.00;;;;2061823;28;20223;-68
2024/03/27 04:13:24;;;;;;;6.47;4.10;;;;;21.40;97448.00;;;;2063128;28;20276;-68
2024/03/27 04:14:24;;;;;;;6.40;3.63;;;;;21.40;97449.00;;;;2065207;28;20218;-68
2024/03/27 04:15:24;;;;;;;5.53;3.77;;;;;21.40;97445.00;;;;2059999;28;20252;-68
2024/03/27 04:16:25;;;;;;;5.63;3.83;;;;;21.40;97448.00;;;;2066969;28;20225;-68
2024/03/27 04:17:25;;;;;;;5.50;3.70;;;;;21.40;97440.00;;;;2064509;28;20690;-68
2024/03/27 04:18:25;;;;;;;5.70;3.57;;;;;21.40;97450.00;;;;2063814;28;20694;-68
2024/03/27 04:19:26;;;;;;;4.97;3.50;;;;;21.40;97441.00;;;;2063463;28;21147;-68
2024/03/27 04:20:26;;;;;;;5.93;3.87;;;;;21.40;97440.00;;;;2054031;28;20227;-68
2024/03/27 04:21:26;;;;;;;5.97;3.57;;;;;21.40;97436.00;;;;2067359;28;20279;-68
2024/03/27 04:22:30;;;;;;;4.87;3.40;;;;;20.90;97436.00;;;;2063797;28;20222;-68
2024/03/27 04:23:31;;;;;;;6.28;3.65;;;;;21.40;97434.00;;;;2063460;28;20257;-68
2024/03/27 04:24:32;;;;;;;6.07;3.40;;;;;21.40;97439.00;;;;2052738;28;20222;-68
2024/03/27 04:25:32;;;;;;;5.77;3.80;;;;;21.30;97440.00;;;;2062973;28;20211;-68
2024/03/27 04:26:33;;;;;;;4.40;3.10;;;;;21.40;97444.00;;;;2063812;28;20473;-68
2024/03/27 04:27:34;;;;;;;7.43;3.80;;;;;21.40;97436.00;;;;2067102;28;21044;-68
2024/03/27 04:28:34;;;;;;;7.20;3.60;;;;;21.30;97440.00;;;;2066136;28;20214;-68
2024/03/27 04:29:34;;;;;;;6.50;3.73;;;;;21.40;97444.00;;;;2054720;28;20234;-68
2024/03/27 04:30:36;;;;;;;4.57;3.10;;;;;21.30;97439.00;;;;2068168;28;20780;-68
2024/03/27 04:31:37;;;;;;;5.47;3.65;;;;;21.40;97442.00;;;;2069740;28;20293;-68
2024/03/27 04:32:37;;;;;;;6.50;3.30;;;;;21.40;97373.00;;;;2065792;28;20207;-68
2024/03/27 04:33:37;;;;;;;5.43;3.60;;;;;21.40;97438.00;;;;2065007;28;20214;-68
2024/03/27 04:34:38;;;;;;;5.50;3.33;;;;;21.40;97446.00;;;;2060407;28;20241;-68
2024/03/27 04:35:38;;;;;;;5.43;3.07;;;;;21.30;97430.00;;;;2075862;28;20230;-68
2024/03/27 04:36:38;;;;;;;4.87;3.10;;;;;21.30;97429.00;;;;2077918;28;20225;-68
2024/03/27 04:37:39;;;;;;;5.70;3.27;;;;;21.40;97422.00;;;;2066047;28;20207;-68
2024/03/27 04:38:40;;;;;;;6.30;3.97;;;;;21.40;97421.00;;;;2064700;28;20215;-68
2024/03/27 04:39:42;;;;;;;6.03;3.20;;;;;21.40;97425.00;;;;2054386;28;20520;-68
2024/03/27 04:40:44;;;;;;;6.03;3.50;;;;;21.30;97402.00;;;;2067726;28;20210;-68
2024/03/27 04:41:44;;;;;;;4.18;3.08;;;;;21.30;97427.00;;;;2072681;28;20611;-68
2024/03/27 04:42:44;;;;;;;5.00;2.90;;;;;21.40;97415.00;;;;2064759;28;20226;-68
2024/03/27 04:43:45;;;;;;;5.43;3.73;;;;;21.30;97424.00;;;;2063724;28;20215;-68
2024/03/27 04:44:45;;;;;;;5.00;3.30;;;;;21.40;97425.00;;;;2050238;28;20219;-68
2024/03/27 04:45:45;;;;;;;5.17;3.17;;;;;21.40;97419.00;;;;2063876;28;20297;-68
2024/03/27 04:46:46;;;;;;;5.57;3.47;;;;;21.40;97415.00;;;;2072456;28;20213;-68
2024/03/27 04:47:46;;;;;;;5.77;3.20;;;;;21.30;97414.00;;;;2070556;28;20272;-68
2024/03/27 04:48:46;;;;;;;5.30;3.20;;;;;21.30;97423.00;;;;2066053;28;20218;-68
2024/03/27 04:49:47;;;;;;;6.00;3.40;;;;;21.30;97427.00;;;;2055344;28;20222;-68
2024/03/27 04:50:47;;;;;;;5.27;3.13;;;;;21.30;97427.00;;;;2067112;28;20206;-68
2024/03/27 04:51:47;;;;;;;4.80;2.97;;;;;21.40;97424.00;;;;2070876;28;20915;-68
2024/03/27 04:52:48;;;;;;;4.93;2.90;;;;;21.30;97419.00;;;;2067935;28;20225;-68
2024/03/27 04:53:48;;;;;;;4.73;2.83;;;;;21.30;97414.00;;;;2071075;28;20292;-68
2024/03/27 04:54:48;;;;;;;4.43;2.80;;;;;21.30;97315.00;;;;2059986;28;20226;-68
2024/03/27 04:55:58;;;;;;;4.83;2.67;;;;;21.40;97425.00;;;;2071430;28;20227;-68
2024/03/27 04:56:58;;;;;;;4.60;2.83;;;;;21.40;97421.00;;;;2072991;28;20225;-75
2024/03/27 04:57:59;;;;;;;5.43;3.40;;;;;21.40;97420.00;;;;2073040;28;20292;-69
2024/03/27 04:58:59;;;;;;;4.20;2.77;;;;;21.30;97415.00;;;;2072856;28;20221;-68
2024/03/27 04:59:59;;;;;;;5.70;3.20;;;;;21.40;97418.00;;;;2061772;28;20230;-68
2024/03/27 05:01:00;;;;;;;5.87;2.93;;;;;21.30;97409.00;;;;2072752;28;20723;-68